createdAt,value
2018-06-19T00:01:46.141Z,17.80
2018-06-19T00:04:14.467Z,17.70
2018-06-19T00:06:42.774Z,17.70
2018-06-19T00:09:11.082Z,17.60
2018-06-19T00:11:39.383Z,17.60
2018-06-19T00:14:07.710Z,17.70
2018-06-19T00:16:36.023Z,17.70
2018-06-19T00:19:04.682Z,17.70
2018-06-19T00:21:36.146Z,17.60
2018-06-19T00:24:04.521Z,17.60
2018-06-19T00:26:33.109Z,17.50
2018-06-19T00:29:01.736Z,17.50
2018-06-19T00:31:30.065Z,17.50
2018-06-19T00:33:58.388Z,17.50
2018-06-19T00:36:26.690Z,17.50
2018-06-19T00:38:55.019Z,17.50
2018-06-19T00:41:23.324Z,17.50
2018-06-19T00:43:52.659Z,17.50
2018-06-19T00:46:23.731Z,17.40
2018-06-19T00:48:52.056Z,17.50
2018-06-19T00:51:20.422Z,17.50
2018-06-19T00:53:48.765Z,17.60
2018-06-19T00:56:59.013Z,17.60
2018-06-19T00:59:27.590Z,17.50
2018-06-19T01:01:57.418Z,17.40
2018-06-19T01:04:25.758Z,17.40
2018-06-19T01:06:54.082Z,17.40
2018-06-19T01:09:22.402Z,17.40
2018-06-19T01:11:50.719Z,17.40
2018-06-19T01:14:19.058Z,17.40
2018-06-19T01:16:47.354Z,17.30
2018-06-19T01:19:15.699Z,17.30
2018-06-19T01:21:44.014Z,17.20
2018-06-19T01:24:12.423Z,17.20
2018-06-19T01:26:40.758Z,17.20
2018-06-19T01:29:09.127Z,17.10
2018-06-19T01:31:37.463Z,17.10
2018-06-19T01:34:05.806Z,17.00
2018-06-19T01:36:34.146Z,17.10
2018-06-19T01:39:02.486Z,17.10
2018-06-19T01:41:30.920Z,17.10
2018-06-19T01:43:59.221Z,17.10
2018-06-19T01:46:27.579Z,16.90
2018-06-19T01:48:55.882Z,16.80
2018-06-19T01:51:24.218Z,16.70
2018-06-19T01:53:52.519Z,16.70
2018-06-19T01:56:20.837Z,16.60
2018-06-19T01:58:49.149Z,16.60
2018-06-19T02:01:17.477Z,16.60
2018-06-19T02:03:45.790Z,16.70
2018-06-19T02:06:14.123Z,16.70
2018-06-19T02:08:42.422Z,16.70
2018-06-19T02:11:10.738Z,16.60
2018-06-19T02:13:39.426Z,16.70
2018-06-19T02:16:07.755Z,16.60
2018-06-19T02:18:36.051Z,16.70
2018-06-19T02:21:04.416Z,16.60
2018-06-19T02:23:32.723Z,16.70
2018-06-19T02:26:01.203Z,16.60
2018-06-19T02:28:29.518Z,16.60
2018-06-19T02:30:57.982Z,16.50
2018-06-19T02:33:26.297Z,16.50
2018-06-19T02:35:54.629Z,16.40
2018-06-19T02:38:22.943Z,16.30
2018-06-19T02:40:51.282Z,16.30
2018-06-19T02:43:19.598Z,16.30
2018-06-19T02:45:47.942Z,16.30
2018-06-19T02:48:16.261Z,16.30
2018-06-19T02:50:44.572Z,16.20
2018-06-19T02:53:12.909Z,16.10
2018-06-19T02:55:41.218Z,16.10
2018-06-19T03:00:37.570Z,16.00
2018-06-19T03:03:05.911Z,15.90
2018-06-19T03:05:34.228Z,15.90
2018-06-19T03:08:02.580Z,15.90
2018-06-19T03:10:30.886Z,16.00
2018-06-19T03:12:59.223Z,16.00
2018-06-19T03:15:27.527Z,16.00
2018-06-19T03:17:55.853Z,16.10
2018-06-19T03:20:24.158Z,16.10
2018-06-19T03:22:52.490Z,16.20
2018-06-19T03:25:20.813Z,16.30
2018-06-19T03:27:49.135Z,16.30
2018-06-19T03:30:17.509Z,16.30
2018-06-19T03:32:45.794Z,16.30
2018-06-19T03:35:14.121Z,16.30
2018-06-19T03:37:42.447Z,16.40
2018-06-19T03:40:10.755Z,16.40
2018-06-19T03:42:39.075Z,16.40
2018-06-19T03:45:07.462Z,16.30
2018-06-19T03:47:35.791Z,16.30
2018-06-19T03:50:04.111Z,16.20
2018-06-19T03:52:32.567Z,16.20
2018-06-19T03:55:00.883Z,16.10
2018-06-19T03:59:57.258Z,16.00
2018-06-19T04:02:25.600Z,16.00
2018-06-19T04:04:53.907Z,16.10
2018-06-19T04:07:22.224Z,16.10
2018-06-19T04:09:50.526Z,16.10
2018-06-19T04:12:18.863Z,16.10
2018-06-19T04:14:47.514Z,16.10
2018-06-19T04:17:20.255Z,16.10
2018-06-19T04:19:48.626Z,16.10
2018-06-19T04:22:16.962Z,16.10
2018-06-19T04:24:45.278Z,16.10
2018-06-19T04:27:13.606Z,16.10
2018-06-19T04:29:41.915Z,16.10
2018-06-19T04:32:10.288Z,16.10
2018-06-19T04:34:38.590Z,16.20
2018-06-19T04:37:06.930Z,16.30
2018-06-19T04:39:35.242Z,16.30
2018-06-19T04:42:03.655Z,16.40
2018-06-19T04:44:31.954Z,16.40
2018-06-19T04:47:00.291Z,16.40
2018-06-19T04:49:28.591Z,16.30
2018-06-19T04:51:56.922Z,16.30
2018-06-19T04:54:25.383Z,16.30
2018-06-19T04:56:53.707Z,16.30
2018-06-19T04:59:22.051Z,16.30
2018-06-19T05:01:50.366Z,16.30
2018-06-19T05:04:18.687Z,16.30
2018-06-19T05:06:47.002Z,16.30
2018-06-19T05:11:44.974Z,16.30
2018-06-19T05:14:13.300Z,16.30
2018-06-19T05:16:42.169Z,16.30
2018-06-19T05:19:10.991Z,16.40
2018-06-19T05:21:39.399Z,16.40
2018-06-19T05:24:07.726Z,16.50
2018-06-19T05:26:36.039Z,16.50
2018-06-19T05:29:04.452Z,16.50
2018-06-19T05:31:32.790Z,16.50
2018-06-19T05:34:01.239Z,16.50
2018-06-19T05:36:29.558Z,16.50
2018-06-19T05:38:57.883Z,16.50
2018-06-19T05:41:26.187Z,16.50
2018-06-19T05:43:54.514Z,16.50
2018-06-19T05:46:22.874Z,16.50
2018-06-19T05:48:51.156Z,16.50
2018-06-19T05:51:19.514Z,16.60
2018-06-19T05:53:47.847Z,16.60
2018-06-19T05:56:16.175Z,16.60
2018-06-19T05:58:44.529Z,16.50
2018-06-19T06:01:12.851Z,16.50
2018-06-19T06:03:41.174Z,16.50
2018-06-19T06:06:09.512Z,16.50
2018-06-19T06:08:37.842Z,16.50
2018-06-19T06:11:06.381Z,16.60
2018-06-19T06:13:34.672Z,16.50
2018-06-19T06:16:03.067Z,16.60
2018-06-19T06:18:31.407Z,16.60
2018-06-19T06:20:59.727Z,16.60
2018-06-19T06:23:28.063Z,16.70
2018-06-19T06:25:56.378Z,16.80
2018-06-19T06:28:24.710Z,16.80
2018-06-19T06:30:53.019Z,16.80
2018-06-19T06:33:21.358Z,16.90
2018-06-19T06:35:49.666Z,16.90
2018-06-19T06:38:18.018Z,17.00
2018-06-19T06:40:46.337Z,16.90
2018-06-19T06:43:14.666Z,16.90
2018-06-19T06:45:43.006Z,16.80
2018-06-19T06:48:11.371Z,16.80
2018-06-19T06:50:39.682Z,16.90
2018-06-19T06:53:08.011Z,17.00
2018-06-19T06:55:36.344Z,17.00
2018-06-19T06:58:04.658Z,17.00
2018-06-19T07:00:32.994Z,17.10
2018-06-19T07:03:01.312Z,17.10
2018-06-19T07:05:29.654Z,17.20
2018-06-19T07:07:57.985Z,17.30
2018-06-19T07:10:26.334Z,17.40
2018-06-19T07:12:54.662Z,17.50
2018-06-19T07:15:22.994Z,17.50
2018-06-19T07:17:51.309Z,17.40
2018-06-19T07:20:19.647Z,17.40
2018-06-19T07:22:47.951Z,17.50
2018-06-19T07:25:16.291Z,17.60
2018-06-19T07:27:44.610Z,17.50
2018-06-19T07:30:13.198Z,17.60
2018-06-19T07:32:41.510Z,17.60
2018-06-19T07:35:09.871Z,17.50
2018-06-19T07:37:38.210Z,17.40
2018-06-19T07:40:06.566Z,17.40
2018-06-19T07:42:34.878Z,17.40
2018-06-19T07:45:03.270Z,17.40
2018-06-19T07:47:32.033Z,17.50
2018-06-19T07:50:00.387Z,17.50
2018-06-19T07:52:28.733Z,17.50
2018-06-19T07:54:57.067Z,17.40
2018-06-19T07:57:25.403Z,17.40
2018-06-19T07:59:53.766Z,17.40
2018-06-19T08:02:22.126Z,17.40
2018-06-19T08:04:50.466Z,17.50
2018-06-19T08:07:18.785Z,17.60
2018-06-19T08:09:47.125Z,17.60
2018-06-19T08:12:15.462Z,17.60
2018-06-19T08:14:43.802Z,17.50
2018-06-19T08:17:12.114Z,17.50
2018-06-19T08:19:40.457Z,17.50
2018-06-19T08:22:08.774Z,17.50
2018-06-19T08:24:37.518Z,17.60
2018-06-19T08:27:05.839Z,17.60
2018-06-19T08:29:34.170Z,17.70
2018-06-19T08:32:02.489Z,17.70
2018-06-19T08:34:30.826Z,17.70
2018-06-19T08:36:59.146Z,17.70
2018-06-19T08:39:27.474Z,17.70
2018-06-19T08:41:55.781Z,17.70
2018-06-19T08:44:24.119Z,17.70
2018-06-19T08:46:52.426Z,17.80
2018-06-19T08:49:20.779Z,17.70
2018-06-19T08:51:49.114Z,17.70
2018-06-19T08:54:17.472Z,17.70
2018-06-19T08:56:45.770Z,17.70
2018-06-19T08:59:14.086Z,17.70
2018-06-19T09:01:42.415Z,17.70
2018-06-19T09:04:10.735Z,17.60
2018-06-19T09:06:39.070Z,17.60
2018-06-19T09:09:09.058Z,17.60
2018-06-19T09:11:37.406Z,17.70
2018-06-19T09:14:05.714Z,17.60
2018-06-19T09:16:34.040Z,17.50
2018-06-19T09:19:02.336Z,17.50
2018-06-19T09:21:30.667Z,17.60
2018-06-19T09:23:58.970Z,17.60
2018-06-19T09:26:27.302Z,17.50
2018-06-19T09:28:55.602Z,17.60
2018-06-19T09:31:23.950Z,17.60
2018-06-19T09:33:52.251Z,17.70
2018-06-19T09:36:20.578Z,17.60
2018-06-19T09:38:48.882Z,17.70
2018-06-19T09:41:17.202Z,17.50
2018-06-19T09:43:46.038Z,17.60
2018-06-19T09:46:14.393Z,17.50
2018-06-19T09:48:42.706Z,17.50
2018-06-19T09:51:11.056Z,17.60
2018-06-19T09:53:39.467Z,17.70
2018-06-19T09:56:07.811Z,17.80
2018-06-19T09:58:36.179Z,17.90
2018-06-19T10:01:04.582Z,17.90
2018-06-19T10:03:33.834Z,17.80
2018-06-19T10:06:02.183Z,17.90
2018-06-19T10:08:30.522Z,17.90
2018-06-19T10:10:58.870Z,18.00
2018-06-19T10:13:27.353Z,18.00
2018-06-19T10:15:55.686Z,18.00
2018-06-19T10:18:23.999Z,18.00
2018-06-19T10:20:52.351Z,18.10
2018-06-19T10:23:27.134Z,18.00
2018-06-19T10:25:55.467Z,18.00
2018-06-19T10:28:23.794Z,17.90
2018-06-19T10:30:52.130Z,17.90
2018-06-19T10:33:20.439Z,17.90
2018-06-19T10:35:48.778Z,17.90
2018-06-19T10:38:17.088Z,18.00
2018-06-19T10:40:45.560Z,18.10
2018-06-19T10:43:13.884Z,18.10
2018-06-19T10:45:42.274Z,18.10
2018-06-19T10:48:10.687Z,18.10
2018-06-19T10:50:39.027Z,18.10
2018-06-19T10:53:07.430Z,18.10
2018-06-19T10:55:35.770Z,18.10
2018-06-19T10:58:04.342Z,18.20
2018-06-19T11:00:32.655Z,18.20
2018-06-19T11:03:00.991Z,18.20
2018-06-19T11:05:29.318Z,18.20
2018-06-19T11:07:57.662Z,18.20
2018-06-19T11:10:25.998Z,18.20
2018-06-19T11:12:54.484Z,18.20
2018-06-19T11:15:22.803Z,18.30
2018-06-19T11:17:51.153Z,18.20
2018-06-19T11:20:19.472Z,18.20
2018-06-19T11:22:47.802Z,18.20
2018-06-19T11:25:16.118Z,18.10
2018-06-19T11:27:44.454Z,18.20
2018-06-19T11:30:12.786Z,18.30
2018-06-19T11:32:41.251Z,18.30
2018-06-19T11:35:09.563Z,18.30
2018-06-19T11:37:37.896Z,18.40
2018-06-19T11:40:06.246Z,18.50
2018-06-19T11:42:34.570Z,18.50
2018-06-19T11:45:02.922Z,18.50
2018-06-19T11:47:31.287Z,18.50
2018-06-19T11:49:59.611Z,18.50
2018-06-19T11:52:27.981Z,18.60
2018-06-19T11:54:56.286Z,18.70
2018-06-19T11:57:24.619Z,18.70
2018-06-19T11:59:52.952Z,18.80
2018-06-19T12:02:21.279Z,18.80
2018-06-19T12:04:49.601Z,18.80
2018-06-19T12:07:17.959Z,18.70
2018-06-19T12:09:46.263Z,18.70
2018-06-19T12:12:14.595Z,18.70
2018-06-19T12:14:44.798Z,18.80
2018-06-19T12:17:14.546Z,18.90
2018-06-19T12:19:42.854Z,19.00
2018-06-19T12:22:11.240Z,19.00
2018-06-19T12:24:39.798Z,19.10
2018-06-19T12:27:08.160Z,19.00
2018-06-19T12:29:36.508Z,19.00
2018-06-19T12:32:04.818Z,19.00
2018-06-19T12:34:33.126Z,19.10
2018-06-19T12:37:01.472Z,19.20
2018-06-19T12:39:29.783Z,19.30
2018-06-19T12:41:58.115Z,19.30
2018-06-19T12:44:26.474Z,19.30
2018-06-19T12:46:54.849Z,19.40
2018-06-19T12:51:39.850Z,19.40
2018-06-19T12:54:17.900Z,19.40
2018-06-19T12:56:46.227Z,19.70
2018-06-19T12:59:14.533Z,19.90
2018-06-19T13:01:42.862Z,20.00
2018-06-19T13:04:22.542Z,20.00
2018-06-19T13:06:50.890Z,20.10
2018-06-19T13:09:19.202Z,20.10
2018-06-19T13:11:47.556Z,20.10
2018-06-19T13:14:27.306Z,20.10
2018-06-19T13:17:07.096Z,20.20
2018-06-19T13:20:46.851Z,20.30
2018-06-19T13:23:15.960Z,20.40
2018-06-19T13:25:44.730Z,20.20
2018-06-19T13:28:13.259Z,20.20
2018-06-19T13:30:53.162Z,20.20
2018-06-19T13:33:21.495Z,20.10
2018-06-19T13:35:49.799Z,20.00
2018-06-19T13:38:18.130Z,20.00
2018-06-19T13:41:08.070Z,20.10
2018-06-19T13:43:47.766Z,20.30
2018-06-19T13:46:16.079Z,20.30
2018-06-19T13:48:44.491Z,20.40
2018-06-19T13:51:13.307Z,20.30
2018-06-19T13:53:42.542Z,20.20
2018-06-19T13:57:30.302Z,20.30
2018-06-19T13:59:59.594Z,20.40
2018-06-19T14:02:27.942Z,20.50
2018-06-19T14:04:56.478Z,20.50
2018-06-19T14:07:25.682Z,20.70
2018-06-19T14:10:05.390Z,20.60
2018-06-19T14:12:58.419Z,20.60
2018-06-19T14:15:28.038Z,20.50
2018-06-19T14:17:56.550Z,20.60
2018-06-19T14:20:24.862Z,20.70
2018-06-19T14:22:53.191Z,20.80
2018-06-19T14:25:21.726Z,20.90
2018-06-19T14:27:50.074Z,20.90
2018-06-19T14:30:18.414Z,20.90
2018-06-19T14:32:47.217Z,20.90
2018-06-19T14:35:15.691Z,21.10
2018-06-19T14:37:44.201Z,21.10
2018-06-19T14:40:12.782Z,21.20
2018-06-19T14:42:41.118Z,21.00
2018-06-19T14:45:10.298Z,21.00
2018-06-19T14:47:38.888Z,21.10
2018-06-19T14:50:07.262Z,21.10
2018-06-19T14:52:35.666Z,21.20
2018-06-19T14:55:04.643Z,21.20
2018-06-19T14:57:32.942Z,21.20
2018-06-19T15:00:01.311Z,21.20
2018-06-19T15:02:29.607Z,21.20
2018-06-19T15:04:57.967Z,21.30
2018-06-19T15:07:29.115Z,21.20
2018-06-19T15:09:57.468Z,21.20
2018-06-19T15:12:25.749Z,21.20
2018-06-19T15:14:54.067Z,21.20
2018-06-19T15:17:22.386Z,21.10
2018-06-19T15:19:50.699Z,21.00
2018-06-19T15:22:19.002Z,20.90
2018-06-19T15:24:47.323Z,21.00
2018-06-19T15:27:15.618Z,21.00
2018-06-19T15:29:44.001Z,21.00
2018-06-19T15:32:12.299Z,21.00
2018-06-19T15:34:40.663Z,21.00
2018-06-19T15:37:09.025Z,21.00
2018-06-19T15:39:37.389Z,21.10
2018-06-19T15:42:05.720Z,21.10
2018-06-19T15:44:34.038Z,21.10
2018-06-19T15:47:02.350Z,21.10
2018-06-19T15:49:30.790Z,21.10
2018-06-19T15:51:59.250Z,21.10
2018-06-19T15:54:27.583Z,21.20
2018-06-19T15:56:55.945Z,21.20
2018-06-19T15:59:24.271Z,21.10
2018-06-19T16:01:52.574Z,21.10
2018-06-19T16:04:20.906Z,21.20
2018-06-19T16:06:49.219Z,21.20
2018-06-19T16:09:17.646Z,21.10
2018-06-19T16:11:45.955Z,21.10
2018-06-19T16:14:14.279Z,21.20
2018-06-19T16:16:42.609Z,21.30
2018-06-19T16:19:10.936Z,21.30
2018-06-19T16:21:39.247Z,21.30
2018-06-19T16:24:07.611Z,21.30
2018-06-19T16:26:35.914Z,21.40
2018-06-19T16:29:04.234Z,21.40
2018-06-19T16:31:32.546Z,21.40
2018-06-19T16:34:00.890Z,21.40
2018-06-19T16:36:29.326Z,21.40
2018-06-19T16:38:57.711Z,21.40
2018-06-19T16:41:27.191Z,21.30
2018-06-19T16:43:55.514Z,21.40
2018-06-19T16:46:23.978Z,21.30
2018-06-19T16:48:52.278Z,21.20
2018-06-19T16:51:20.619Z,21.30
2018-06-19T16:53:48.997Z,21.20
2018-06-19T16:56:17.290Z,21.20
2018-06-19T16:58:45.590Z,21.20
2018-06-19T17:01:13.912Z,21.20
2018-06-19T17:03:42.227Z,21.30
2018-06-19T17:06:10.603Z,21.30
2018-06-19T17:08:38.914Z,21.40
2018-06-19T17:11:07.246Z,21.30
2018-06-19T17:13:35.702Z,21.30
2018-06-19T17:16:04.038Z,21.30
2018-06-19T17:18:32.354Z,21.20
2018-06-19T17:21:00.738Z,21.20
2018-06-19T17:23:29.047Z,21.20
2018-06-19T17:25:57.375Z,21.20
2018-06-19T17:28:25.682Z,21.10
2018-06-19T17:30:54.498Z,21.20
2018-06-19T17:33:22.811Z,21.20
2018-06-19T17:35:51.146Z,21.20
2018-06-19T17:38:19.462Z,21.30
2018-06-19T17:40:48.008Z,21.40
2018-06-19T17:43:16.351Z,21.50
2018-06-19T17:45:44.670Z,21.40
2018-06-19T17:48:12.994Z,21.40
2018-06-19T17:50:41.443Z,21.40
2018-06-19T17:53:09.767Z,21.30
2018-06-19T17:55:38.114Z,21.20
2018-06-19T17:58:06.426Z,21.20
2018-06-19T18:00:34.744Z,21.20
2018-06-19T18:03:03.234Z,21.20
2018-06-19T18:05:31.555Z,21.30
2018-06-19T18:08:00.058Z,21.30
2018-06-19T18:10:28.431Z,21.30
2018-06-19T18:12:56.737Z,21.20
2018-06-19T18:15:25.088Z,21.20
2018-06-19T18:17:53.374Z,21.20
2018-06-19T18:20:21.703Z,21.30
2018-06-19T18:22:50.043Z,21.40
2018-06-19T18:25:18.411Z,21.30
2018-06-19T18:27:46.718Z,21.40
2018-06-19T18:30:15.091Z,21.30
2018-06-19T18:32:43.532Z,21.30
2018-06-19T18:35:11.856Z,21.20
2018-06-19T18:37:40.159Z,21.10
2018-06-19T18:40:08.487Z,21.00
2018-06-19T18:42:36.889Z,21.10
2018-06-19T18:45:05.205Z,21.10
2018-06-19T18:47:33.508Z,21.10
2018-06-19T18:50:01.827Z,21.20
2018-06-19T18:52:30.211Z,21.20
2018-06-19T18:54:58.511Z,21.20
2018-06-19T18:57:26.996Z,21.20
2018-06-19T18:59:55.306Z,21.20
2018-06-19T19:02:23.619Z,21.10
2018-06-19T19:04:51.954Z,21.00
2018-06-19T19:07:20.268Z,20.90
2018-06-19T19:09:54.028Z,20.90
2018-06-19T19:12:22.345Z,20.80
2018-06-19T19:14:56.035Z,20.80
2018-06-19T19:17:29.818Z,20.70
2018-06-19T19:19:58.132Z,20.70
2018-06-19T19:22:26.458Z,20.70
2018-06-19T19:24:54.755Z,20.60
2018-06-19T19:27:28.468Z,20.60
2018-06-19T19:29:56.778Z,20.60
2018-06-19T19:32:25.131Z,20.60
2018-06-19T19:34:53.499Z,20.60
2018-06-19T19:37:27.158Z,20.70
2018-06-19T19:39:55.469Z,20.60
2018-06-19T19:42:23.799Z,20.60
2018-06-19T19:44:52.090Z,20.50
2018-06-19T19:47:25.882Z,20.50
2018-06-19T19:49:54.180Z,20.50
2018-06-19T19:52:22.527Z,20.40
2018-06-19T19:54:50.874Z,20.40
2018-06-19T19:57:24.655Z,20.40
2018-06-19T19:59:52.967Z,20.40
2018-06-19T20:02:21.439Z,20.30
2018-06-19T20:04:49.809Z,20.20
2018-06-19T20:07:18.140Z,20.20
2018-06-19T20:09:46.450Z,20.20
2018-06-19T20:12:14.806Z,20.20
2018-06-19T20:14:43.118Z,20.10
2018-06-19T20:17:11.537Z,20.20
2018-06-19T20:19:39.847Z,20.20
2018-06-19T20:22:08.362Z,20.10
2018-06-19T20:24:36.666Z,20.10
2018-06-19T20:27:05.150Z,20.10
2018-06-19T20:29:33.459Z,20.10
2018-06-19T20:32:01.779Z,20.00
2018-06-19T20:34:30.091Z,20.10
2018-06-19T20:36:58.414Z,20.10
2018-06-19T20:39:26.719Z,20.10
2018-06-19T20:41:55.046Z,20.10
2018-06-19T20:44:23.362Z,20.10
2018-06-19T20:46:51.682Z,20.00
2018-06-19T20:49:20.005Z,20.00
2018-06-19T20:51:48.362Z,19.90
2018-06-19T20:54:17.366Z,19.90
2018-06-19T20:56:45.695Z,19.90
2018-06-19T20:59:14.120Z,19.80
2018-06-19T21:01:42.462Z,19.90
2018-06-19T21:04:10.773Z,19.90
2018-06-19T21:06:39.102Z,19.90
2018-06-19T21:09:08.096Z,19.90
2018-06-19T21:11:36.455Z,19.90
2018-06-19T21:14:04.778Z,19.80
2018-06-19T21:16:33.105Z,19.80
2018-06-19T21:19:01.407Z,19.70
2018-06-19T21:21:29.730Z,19.60
2018-06-19T21:23:58.054Z,19.60
2018-06-19T21:26:26.634Z,19.60
2018-06-19T21:28:54.958Z,19.60
2018-06-19T21:31:23.266Z,19.50
2018-06-19T21:33:51.611Z,19.50
2018-06-19T21:36:19.918Z,19.50
2018-06-19T21:38:48.257Z,19.50
2018-06-19T21:41:16.571Z,19.40
2018-06-19T21:43:44.898Z,19.50
2018-06-19T21:46:13.206Z,19.50
2018-06-19T21:48:41.538Z,19.50
2018-06-19T21:51:09.851Z,19.40
2018-06-19T21:53:38.195Z,19.50
2018-06-19T21:56:06.501Z,19.50
2018-06-19T21:58:34.835Z,19.50
2018-06-19T22:01:03.146Z,19.50
2018-06-19T22:03:31.470Z,19.40
2018-06-19T22:05:59.795Z,19.40
2018-06-19T22:08:33.361Z,19.20
2018-06-19T22:11:01.662Z,19.20
2018-06-19T22:13:29.983Z,19.20
2018-06-19T22:15:58.290Z,19.30
2018-06-19T22:18:26.629Z,19.30
2018-06-19T22:20:54.930Z,19.30
2018-06-19T22:23:23.258Z,19.30
2018-06-19T22:25:51.566Z,19.30
2018-06-19T22:28:19.890Z,19.30
2018-06-19T22:30:48.211Z,19.30
2018-06-19T22:33:16.542Z,19.30
2018-06-19T22:35:44.868Z,19.30
2018-06-19T22:38:13.239Z,19.30
2018-06-19T22:40:41.543Z,19.30
2018-06-19T22:43:09.868Z,19.20
2018-06-19T22:45:38.186Z,19.20
2018-06-19T22:48:06.523Z,19.20
2018-06-19T22:50:34.990Z,19.20
2018-06-19T22:53:03.327Z,19.20
2018-06-19T22:55:31.750Z,19.30
2018-06-19T22:58:00.044Z,19.30
2018-06-19T23:00:28.366Z,19.30
2018-06-19T23:03:00.067Z,19.20
2018-06-19T23:05:28.478Z,19.30
2018-06-19T23:07:56.782Z,19.30
2018-06-19T23:10:25.155Z,19.30
2018-06-19T23:12:53.459Z,19.30
2018-06-19T23:15:21.935Z,19.20
2018-06-19T23:17:50.238Z,19.10
2018-06-19T23:20:18.559Z,19.10
2018-06-19T23:22:47.810Z,19.10
2018-06-19T23:25:16.770Z,19.10
2018-06-19T23:27:45.113Z,19.20
2018-06-19T23:30:13.426Z,19.20
2018-06-19T23:32:41.990Z,19.20
2018-06-19T23:35:10.610Z,19.20
2018-06-19T23:37:38.943Z,19.20
2018-06-19T23:40:07.276Z,19.10
2018-06-19T23:42:35.613Z,19.10
2018-06-19T23:45:04.892Z,18.90
2018-06-19T23:47:33.582Z,18.90
2018-06-19T23:50:01.907Z,18.90
2018-06-19T23:52:31.587Z,18.90
2018-06-19T23:55:00.207Z,18.90
2018-06-19T23:57:28.510Z,18.90
2018-06-19T23:59:56.846Z,18.90
